Time;durP1;ratioP1;P1;durP2;ratioP2;P2;SDS_P1;SDS_P2;PMS_P1;PMS_P2;Temp;Humidity;BMP_temperature;BMP_pressure;BME280_temperature;BME280_humidity;BME280_pressure;Samples;Min_cycle;Max_cycle;Signal;HPM_P1;HPM_P2
2022/01/14 00:02:01;;;;;;;63.17;34.90;;;1.60;99.90;;;;;;5014961;28;20206;-88
2022/01/14 00:04:27;;;;;;;62.88;35.08;;;1.60;99.90;;;;;;4997306;28;20454;-88
2022/01/14 00:06:53;;;;;;;65.53;35.20;;;1.70;99.90;;;;;;4997168;28;20648;-88
2022/01/14 00:09:19;;;;;;;61.10;33.88;;;1.70;99.90;;;;;;5014707;28;20474;-87
2022/01/14 00:11:50;;;;;;;57.27;32.17;;;1.70;99.90;;;;;;4997736;28;20218;-87
2022/01/14 00:16:46;;;;;;;56.72;32.97;;;1.70;99.90;;;;;;5014719;28;20225;-88
2022/01/14 00:19:12;;;;;;;63.03;35.20;;;1.70;99.90;;;;;;4997116;28;20183;-87
2022/01/14 00:21:40;;;;;;;52.60;31.42;;;1.80;99.90;;;;;;4996636;28;20811;-88
2022/01/14 00:24:22;;;;;;;59.10;33.42;;;1.70;99.90;;;;;;4997259;28;20179;-88
2022/01/14 00:34:44;;;;;;;50.30;29.95;;;1.80;99.90;;;;;;5035339;28;20256;-88
2022/01/14 00:37:10;;;;;;;53.03;30.43;;;1.80;99.90;;;;;;5020877;28;20610;-88
2022/01/14 00:39:36;;;;;;;53.13;31.13;;;1.80;99.90;;;;;;5005347;28;20728;-88
2022/01/14 00:42:02;;;;;;;52.53;29.93;;;1.80;99.90;;;;;;4997016;28;20307;-87
2022/01/14 00:44:28;;;;;;;50.20;30.45;;;1.80;99.90;;;;;;4996709;28;20179;-88
2022/01/14 00:46:54;;;;;;;43.83;26.07;;;1.90;99.90;;;;;;5014221;28;20238;-88
2022/01/14 00:49:20;;;;;;;50.67;29.43;;;1.90;99.90;;;;;;5013492;28;20175;-88
2022/01/14 00:51:46;;;;;;;57.83;29.13;;;1.90;99.90;;;;;;5013511;28;20660;-87
2022/01/14 00:54:14;;;;;;;44.97;26.95;;;1.90;99.90;;;;;;4998421;28;20706;-87
2022/01/14 00:59:16;;;;;;;44.42;26.48;;;1.90;99.90;;;;;;5018484;28;20198;-86
2022/01/14 01:02:03;;;;;;;43.92;25.08;;;1.90;99.90;;;;;;5000606;28;20592;-88
2022/01/14 01:04:34;;;;;;;45.40;25.73;;;1.90;99.90;;;;;;5017674;28;20197;-88
2022/01/14 01:07:01;;;;;;;46.45;25.50;;;1.90;99.90;;;;;;5000667;28;20238;-88
2022/01/14 01:09:29;;;;;;;49.00;27.15;;;1.90;99.90;;;;;;5000170;28;20214;-88
2022/01/14 01:12:09;;;;;;;49.78;29.83;;;1.90;99.90;;;;;;5000678;28;20552;-88
2022/01/14 01:14:46;;;;;;;44.03;24.80;;;1.90;99.90;;;;;;5000669;28;20217;-87
2022/01/14 01:17:12;;;;;;;43.85;25.98;;;1.90;99.90;;;;;;5000297;28;20713;-87
2022/01/14 01:19:39;;;;;;;43.40;25.10;;;1.90;99.90;;;;;;5017672;28;20198;-88
2022/01/14 01:22:05;;;;;;;46.38;25.77;;;2.00;99.90;;;;;;5017697;28;20608;-87
2022/01/14 01:24:31;;;;;;;47.53;24.40;;;2.00;99.90;;;;;;5000391;28;20178;-87
2022/01/14 01:26:57;;;;;;;38.83;24.60;;;2.00;99.90;;;;;;5000789;28;20383;-88
2022/01/14 01:31:48;;;;;;;43.17;24.83;;;2.00;99.90;;;;;;5028692;28;20172;-88
2022/01/14 01:34:19;;;;;;;43.23;24.47;;;1.90;99.90;;;;;;5006416;28;20171;-87
2022/01/14 01:36:48;;;;;;;49.22;24.25;;;1.90;99.90;;;;;;5001968;28;20648;-87
2022/01/14 01:39:16;;;;;;;38.63;22.50;;;1.90;99.90;;;;;;5017977;28;20224;-88
2022/01/14 01:41:46;;;;;;;44.33;22.85;;;1.90;99.90;;;;;;5003695;28;20227;-87
2022/01/14 01:44:13;;;;;;;42.90;23.55;;;1.90;99.90;;;;;;5032619;28;20186;-87
2022/01/14 01:46:42;;;;;;;39.58;23.25;;;1.90;99.90;;;;;;5013360;28;20254;-88
2022/01/14 01:49:11;;;;;;;41.17;23.20;;;1.90;99.90;;;;;;5002743;28;20230;-87
2022/01/14 01:51:38;;;;;;;39.40;22.95;;;1.90;99.90;;;;;;5005739;28;20209;-88
2022/01/14 01:54:03;;;;;;;40.08;20.88;;;1.90;99.90;;;;;;5000190;28;20552;-88
2022/01/14 01:56:29;;;;;;;46.27;23.87;;;1.90;99.90;;;;;;4999987;28;20206;-88
2022/01/14 01:58:58;;;;;;;40.47;21.57;;;1.90;99.90;;;;;;4999593;28;20394;-87
2022/01/14 02:01:25;;;;;;;39.72;22.17;;;1.90;99.90;;;;;;4999761;28;20222;-87
2022/01/14 02:03:53;;;;;;;38.70;22.15;;;1.90;99.90;;;;;;4999547;28;20303;-87
2022/01/14 02:06:21;;;;;;;38.92;22.17;;;1.90;99.90;;;;;;4999552;28;20246;-88
2022/01/14 02:08:47;;;;;;;45.05;23.50;;;1.90;99.90;;;;;;4999325;28;20557;-87
2022/01/14 02:11:13;;;;;;;42.08;21.20;;;1.90;99.90;;;;;;4999546;28;20214;-88
2022/01/14 02:13:39;;;;;;;43.77;22.03;;;1.90;99.90;;;;;;4999592;28;20171;-87
2022/01/14 02:24:21;;;;;;;34.72;20.40;;;1.90;99.90;;;;;;5017017;28;20171;-88
2022/01/14 02:26:50;;;;;;;37.28;20.65;;;1.90;99.90;;;;;;4999705;28;20183;-87
2022/01/14 02:29:17;;;;;;;40.15;20.45;;;1.80;99.90;;;;;;5017010;28;20254;-87
2022/01/14 02:31:43;;;;;;;35.88;20.63;;;1.80;99.90;;;;;;5017087;28;20285;-87
2022/01/14 02:34:14;;;;;;;34.28;20.88;;;1.80;99.90;;;;;;5000099;28;20183;-88
2022/01/14 02:36:41;;;;;;;37.83;21.33;;;1.80;99.90;;;;;;5020694;28;20228;-87
2022/01/14 02:39:09;;;;;;;37.90;22.40;;;1.80;99.90;;;;;;5001979;28;20191;-87
2022/01/14 02:41:35;;;;;;;39.08;22.92;;;1.80;99.90;;;;;;5000909;28;20696;-88
2022/01/14 02:44:06;;;;;;;32.45;20.20;;;1.80;99.90;;;;;;5030162;28;20179;-87
2022/01/14 02:46:38;;;;;;;41.13;22.95;;;1.80;99.90;;;;;;5037666;28;20226;-88
2022/01/14 02:49:04;;;;;;;37.08;21.08;;;1.80;99.90;;;;;;5006007;28;20541;-88
2022/01/14 02:51:31;;;;;;;33.25;19.70;;;1.80;99.90;;;;;;5016678;28;20203;-87
2022/01/14 02:53:59;;;;;;;44.40;22.23;;;1.80;99.90;;;;;;5016188;28;20229;-87
2022/01/14 02:56:31;;;;;;;33.10;20.15;;;1.80;99.90;;;;;;4998977;28;20203;-88
2022/01/14 02:58:59;;;;;;;37.80;20.27;;;1.80;99.90;;;;;;5016198;28;20155;-87
2022/01/14 03:01:26;;;;;;;31.88;19.90;;;1.80;99.90;;;;;;4998545;28;20309;-88
2022/01/14 03:03:58;;;;;;;38.25;21.23;;;1.80;99.90;;;;;;4998714;28;20198;-88
2022/01/14 03:06:25;;;;;;;37.15;18.98;;;1.80;99.90;;;;;;4998508;28;20243;-87
2022/01/14 03:08:51;;;;;;;37.85;21.63;;;1.80;99.90;;;;;;5015854;28;20174;-87
2022/01/14 03:11:29;;;;;;;37.80;21.17;;;1.80;99.90;;;;;;4998476;28;20204;-87
2022/01/14 03:13:56;;;;;;;35.10;21.58;;;1.80;99.90;;;;;;5015865;28;20857;-88
2022/01/14 03:16:24;;;;;;;32.33;19.63;;;1.80;99.90;;;;;;5015903;28;20211;-88
2022/01/14 03:18:52;;;;;;;39.75;21.13;;;1.80;99.90;;;;;;5014554;28;20206;-88
2022/01/14 03:21:27;;;;;;;38.92;22.00;;;1.90;99.90;;;;;;5014557;28;20211;-87
2022/01/14 03:24:03;;;;;;;32.33;18.77;;;1.90;99.90;;;;;;5014639;28;20593;-88
2022/01/14 03:26:29;;;;;;;44.90;21.30;;;1.90;99.90;;;;;;4998310;28;20298;-88
2022/01/14 03:28:56;;;;;;;40.72;21.98;;;1.90;99.90;;;;;;4998138;28;20172;-88
2022/01/14 03:31:21;;;;;;;40.55;21.33;;;2.00;99.90;;;;;;5014189;28;20248;-87
2022/01/14 03:33:47;;;;;;;33.70;19.00;;;2.00;99.90;;;;;;5015589;28;20269;-87
2022/01/14 03:36:13;;;;;;;41.77;19.83;;;2.00;99.90;;;;;;4997920;28;20453;-88
2022/01/14 03:38:39;;;;;;;39.63;20.43;;;2.00;99.90;;;;;;4998039;28;20513;-87
2022/01/14 03:41:06;;;;;;;43.10;22.90;;;2.10;99.90;;;;;;5015011;28;20290;-88
2022/01/14 03:43:33;;;;;;;36.33;20.63;;;2.10;99.90;;;;;;4998034;28;20179;-88
2022/01/14 03:45:59;;;;;;;39.88;21.20;;;2.10;99.90;;;;;;5015711;28;20535;-88
2022/01/14 03:48:25;;;;;;;37.63;18.87;;;2.10;99.90;;;;;;4997726;28;20181;-87
2022/01/14 03:50:51;;;;;;;40.47;20.17;;;2.10;99.90;;;;;;5025189;28;20440;-87
2022/01/14 03:53:16;;;;;;;41.80;20.77;;;2.10;99.90;;;;;;5024237;28;20175;-88
2022/01/14 03:55:43;;;;;;;42.63;21.30;;;2.10;99.90;;;;;;5008955;28;20480;-88
2022/01/14 03:58:09;;;;;;;43.28;22.45;;;2.10;99.90;;;;;;4999788;28;20526;-88
2022/01/14 04:00:36;;;;;;;34.30;20.83;;;2.10;99.90;;;;;;5017505;28;20207;-88
2022/01/14 04:03:03;;;;;;;42.22;20.80;;;2.00;99.90;;;;;;4996881;28;20352;-88
2022/01/14 04:05:29;;;;;;;33.95;20.17;;;2.00;99.90;;;;;;4997279;28;20204;-88
2022/01/14 04:07:55;;;;;;;40.17;21.20;;;2.00;99.90;;;;;;5014548;28;20219;-88
2022/01/14 04:10:21;;;;;;;36.83;20.77;;;2.00;99.90;;;;;;4997380;28;20734;-86
2022/01/14 04:18:00;;;;;;;37.13;19.52;;;1.80;99.90;;;;;;5014548;28;20500;-87
2022/01/14 04:20:26;;;;;;;32.00;19.85;;;1.80;99.90;;;;;;5013425;28;20218;-87
2022/01/14 04:22:52;;;;;;;37.55;22.02;;;1.70;99.90;;;;;;5014428;28;20217;-87
2022/01/14 04:25:18;;;;;;;41.03;20.83;;;1.70;99.90;;;;;;4997040;28;20579;-87
2022/01/14 04:27:44;;;;;;;40.00;21.40;;;1.70;99.90;;;;;;5014399;28;20401;-87
2022/01/14 04:30:11;;;;;;;44.57;23.50;;;1.70;99.90;;;;;;5013889;28;20505;-87
2022/01/14 04:32:36;;;;;;;38.00;20.58;;;1.60;99.90;;;;;;4997293;28;20901;-88
2022/01/14 04:35:03;;;;;;;44.47;21.00;;;1.60;99.90;;;;;;4997151;28;20212;-87
2022/01/14 04:37:28;;;;;;;44.67;21.85;;;1.60;99.90;;;;;;4997655;28;20178;-88
2022/01/14 04:39:54;;;;;;;38.80;21.47;;;1.50;99.90;;;;;;5035092;28;20214;-87
2022/01/14 04:42:20;;;;;;;41.20;21.20;;;1.50;99.90;;;;;;5029494;28;20218;-87
2022/01/14 04:44:45;;;;;;;40.27;20.00;;;1.50;99.90;;;;;;5017183;28;20199;-88
2022/01/14 04:47:29;;;;;;;32.20;19.10;;;1.40;99.90;;;;;;5036156;28;20395;-88
2022/01/14 04:49:55;;;;;;;40.65;21.35;;;1.40;99.90;;;;;;5019703;28;20199;-87
2022/01/14 04:52:21;;;;;;;39.97;20.10;;;1.30;99.90;;;;;;4996665;28;20755;-88
2022/01/14 04:54:47;;;;;;;35.88;19.83;;;1.30;99.90;;;;;;5013013;28;20249;-87
2022/01/14 04:57:16;;;;;;;34.07;21.93;;;1.30;99.90;;;;;;4996984;28;20183;-88
2022/01/14 04:59:46;;;;;;;38.20;18.58;;;1.20;99.90;;;;;;4996561;28;20464;-87
2022/01/14 05:02:13;;;;;;;41.63;20.67;;;1.20;99.90;;;;;;4996333;28;20225;-87
2022/01/14 05:04:40;;;;;;;46.80;24.48;;;1.20;99.90;;;;;;4997248;28;20199;-87
2022/01/14 05:07:10;;;;;;;39.75;22.52;;;1.20;99.90;;;;;;5014318;28;20238;-87
2022/01/14 05:09:41;;;;;;;44.63;23.02;;;1.20;99.90;;;;;;4996438;28;20675;-87
2022/01/14 05:12:09;;;;;;;38.47;19.70;;;1.10;99.90;;;;;;4996702;28;20210;-88
2022/01/14 05:14:38;;;;;;;37.25;20.52;;;1.10;99.90;;;;;;4996552;28;20211;-87
2022/01/14 05:17:04;;;;;;;32.30;18.50;;;1.20;99.90;;;;;;4997255;28;20175;-88
2022/01/14 05:19:29;;;;;;;41.47;20.60;;;1.20;99.90;;;;;;5033501;28;20223;-88
2022/01/14 05:21:55;;;;;;;38.73;21.10;;;1.10;99.90;;;;;;5003964;28;20211;-87
2022/01/14 05:24:22;;;;;;;45.83;23.33;;;1.20;99.90;;;;;;5016172;28;20183;-87
2022/01/14 05:26:48;;;;;;;48.65;27.40;;;1.20;99.90;;;;;;5026571;28;20421;-88
2022/01/14 05:29:14;;;;;;;41.27;23.30;;;1.20;99.90;;;;;;5016108;28;20187;-87
2022/01/14 05:31:52;;;;;;;42.33;20.30;;;1.20;99.90;;;;;;5014078;28;20617;-87
2022/01/14 05:34:18;;;;;;;36.13;20.80;;;1.20;99.90;;;;;;5024437;28;20412;-88
2022/01/14 05:36:44;;;;;;;39.90;22.80;;;1.20;99.90;;;;;;5011278;28;20178;-87
2022/01/14 05:39:10;;;;;;;34.03;20.35;;;1.20;99.90;;;;;;5009754;28;20237;-88
2022/01/14 05:41:36;;;;;;;184.68;62.28;;;1.10;99.90;;;;;;5014552;28;20556;-87
2022/01/14 05:44:03;;;;;;;64.72;32.33;;;1.00;99.90;;;;;;5007941;28;20563;-87
2022/01/14 05:46:29;;;;;;;38.45;21.83;;;1.00;99.90;;;;;;5008715;28;20261;-87
2022/01/14 05:48:55;;;;;;;35.33;21.20;;;0.90;99.90;;;;;;5036908;28;20170;-87
2022/01/14 05:51:20;;;;;;;34.20;21.83;;;0.90;99.90;;;;;;5025223;28;20203;-87
2022/01/14 05:53:46;;;;;;;38.27;19.97;;;0.90;99.90;;;;;;5035278;28;20233;-87
2022/01/14 05:56:12;;;;;;;36.40;19.47;;;0.90;99.90;;;;;;5036005;28;20205;-87
2022/01/14 05:58:37;;;;;;;29.90;16.13;;;0.90;99.90;;;;;;5027931;28;20183;-87
2022/01/14 06:01:03;;;;;;;34.47;20.40;;;0.80;99.90;;;;;;5016775;28;20202;-87
2022/01/14 06:03:29;;;;;;;32.17;17.33;;;0.80;99.90;;;;;;5032516;28;20218;-86
2022/01/14 06:05:54;;;;;;;33.90;18.73;;;0.80;99.90;;;;;;5036514;28;20245;-87
2022/01/14 06:08:20;;;;;;;32.03;19.03;;;0.80;99.90;;;;;;5028044;28;20219;-87
2022/01/14 06:10:46;;;;;;;39.40;22.73;;;0.80;99.90;;;;;;5017875;28;20213;-86
2022/01/14 06:13:12;;;;;;;33.57;20.87;;;0.70;99.90;;;;;;5017123;28;20178;-87
2022/01/14 06:15:37;;;;;;;43.42;22.35;;;0.70;99.90;;;;;;5016293;28;20651;-86
2022/01/14 06:18:03;;;;;;;42.40;27.10;;;0.60;99.90;;;;;;5031318;28;20220;-86
2022/01/14 06:20:29;;;;;;;39.10;25.63;;;0.50;99.90;;;;;;5013427;28;20202;-87
2022/01/14 06:22:54;;;;;;;44.50;30.07;;;0.50;99.90;;;;;;5013270;28;20207;-86
2022/01/14 06:25:20;;;;;;;36.10;21.30;;;0.40;99.90;;;;;;5017084;28;20210;-87
2022/01/14 06:27:46;;;;;;;42.07;23.90;;;0.40;99.90;;;;;;5034593;28;20186;-87
2022/01/14 06:30:12;;;;;;;54.63;25.83;;;0.40;99.90;;;;;;5015148;28;20467;-87
2022/01/14 06:32:41;;;;;;;45.60;25.10;;;0.30;99.90;;;;;;5011721;28;20182;-86
2022/01/14 06:35:13;;;;;;;42.92;26.67;;;0.30;99.90;;;;;;5017928;28;20214;-87
2022/01/14 06:37:39;;;;;;;43.13;24.10;;;0.30;99.90;;;;;;5034447;28;20648;-87
2022/01/14 06:40:06;;;;;;;45.65;25.65;;;0.40;99.90;;;;;;5043380;28;20205;-87
2022/01/14 06:42:33;;;;;;;44.10;26.35;;;0.30;99.90;;;;;;5026770;28;20234;-87
2022/01/14 06:44:58;;;;;;;39.03;24.40;;;0.30;99.90;;;;;;5017611;28;20233;-87
2022/01/14 06:47:25;;;;;;;42.70;25.20;;;0.30;99.90;;;;;;5018031;28;20588;-85
2022/01/14 06:49:51;;;;;;;37.30;25.20;;;0.40;99.90;;;;;;5031055;28;20562;-87
2022/01/14 06:52:17;;;;;;;45.10;22.88;;;0.40;99.90;;;;;;5015940;28;20171;-87
2022/01/14 06:54:43;;;;;;;35.35;19.40;;;0.40;99.90;;;;;;5032627;28;20210;-87
2022/01/14 06:57:09;;;;;;;28.77;18.00;;;0.40;99.90;;;;;;5021078;28;20178;-88
2022/01/14 06:59:34;;;;;;;33.90;20.17;;;0.40;99.90;;;;;;5011970;28;20179;-88
2022/01/14 07:02:01;;;;;;;34.97;19.10;;;0.40;99.90;;;;;;5023079;28;20214;-88
2022/01/14 07:04:27;;;;;;;34.08;18.52;;;0.50;99.90;;;;;;5007440;28;20175;-87
2022/01/14 07:06:52;;;;;;;36.67;21.43;;;0.50;99.90;;;;;;5012769;28;20222;-88
2022/01/14 07:09:22;;;;;;;40.50;22.03;;;0.50;99.90;;;;;;5009011;28;20428;-87
2022/01/14 07:11:53;;;;;;;42.78;25.15;;;0.60;99.90;;;;;;5008639;28;20195;-88
2022/01/14 07:14:19;;;;;;;35.55;19.50;;;0.60;99.90;;;;;;5010727;28;20194;-87
2022/01/14 07:16:47;;;;;;;33.05;19.67;;;0.70;99.90;;;;;;5027013;28;20198;-87
2022/01/14 07:19:13;;;;;;;32.08;17.27;;;0.80;99.90;;;;;;5017080;28;20688;-87
2022/01/14 07:21:39;;;;;;;33.72;18.23;;;0.90;99.90;;;;;;5024036;28;20210;-88
2022/01/14 07:24:06;;;;;;;28.13;17.30;;;1.00;99.90;;;;;;5011049;28;20257;-87
2022/01/14 07:26:32;;;;;;;23.42;16.48;;;1.10;99.90;;;;;;5009500;28;20207;-88
2022/01/14 07:28:58;;;;;;;32.65;16.42;;;1.10;99.90;;;;;;5025010;28;20228;-89
2022/01/14 07:31:24;;;;;;;26.38;15.85;;;1.20;99.90;;;;;;5018023;28;20673;-87
2022/01/14 07:33:54;;;;;;;27.07;15.67;;;1.20;99.90;;;;;;5011196;28;20178;-87
2022/01/14 07:36:19;;;;;;;29.98;18.02;;;1.30;99.90;;;;;;5011416;28;20215;-87
2022/01/14 07:38:45;;;;;;;30.00;17.40;;;1.40;99.90;;;;;;5010072;28;20187;-89
2022/01/14 07:41:11;;;;;;;29.77;17.80;;;1.40;99.90;;;;;;5023821;28;20209;-88
2022/01/14 07:43:37;;;;;;;29.98;17.10;;;1.50;99.90;;;;;;5027841;28;20237;-88
2022/01/14 07:46:05;;;;;;;30.00;15.30;;;1.80;99.90;;;;;;5008004;28;20538;-88
2022/01/14 07:48:31;;;;;;;28.05;17.05;;;1.90;99.90;;;;;;5009911;28;20189;-88
2022/01/14 07:50:57;;;;;;;29.77;16.50;;;2.20;99.90;;;;;;5010033;28;20202;-87
2022/01/14 07:53:23;;;;;;;31.90;16.67;;;2.40;99.90;;;;;;5021626;28;20243;-88
2022/01/14 07:55:49;;;;;;;27.47;15.67;;;2.70;99.90;;;;;;5029310;28;20251;-88
2022/01/14 07:58:15;;;;;;;25.20;15.20;;;3.30;99.90;;;;;;5029394;28;20220;-88
2022/01/14 08:00:41;;;;;;;25.17;16.10;;;3.80;99.90;;;;;;5035068;28;20471;-88
2022/01/14 08:03:07;;;;;;;25.45;15.07;;;4.40;99.90;;;;;;5022379;28;20516;-87
2022/01/14 08:05:34;;;;;;;27.13;16.13;;;4.80;99.90;;;;;;5015260;28;20210;-89
2022/01/14 08:08:04;;;;;;;25.63;15.10;;;5.30;99.90;;;;;;5011406;28;20533;-88
2022/01/14 08:10:32;;;;;;;23.20;14.43;;;5.90;99.90;;;;;;5016570;28;20277;-88
2022/01/14 08:12:58;;;;;;;27.58;16.92;;;6.40;99.90;;;;;;5015967;28;20487;-88
2022/01/14 08:15:24;;;;;;;25.42;16.75;;;7.00;99.90;;;;;;5013237;28;20344;-89
2022/01/14 08:17:50;;;;;;;24.40;15.30;;;7.60;99.90;;;;;;5029765;28;20659;-89
2022/01/14 08:20:16;;;;;;;27.05;15.15;;;8.20;99.90;;;;;;5020908;28;20202;-88
2022/01/14 08:22:42;;;;;;;23.93;15.90;;;8.60;99.90;;;;;;5031070;28;20218;-88
2022/01/14 08:25:09;;;;;;;24.40;14.80;;;8.70;99.90;;;;;;5021122;28;20792;-88
2022/01/14 08:27:35;;;;;;;28.60;16.35;;;8.80;99.90;;;;;;5005765;28;20171;-89
2022/01/14 08:30:02;;;;;;;22.20;16.23;;;8.90;99.90;;;;;;5026887;28;20294;-89
2022/01/14 08:32:28;;;;;;;24.58;15.90;;;9.20;99.90;;;;;;5031005;28;20182;-88
2022/01/14 08:34:54;;;;;;;27.47;17.33;;;9.30;99.90;;;;;;5022013;28;20210;-89
2022/01/14 08:37:19;;;;;;;26.23;16.70;;;9.30;99.90;;;;;;5018641;28;20576;-88
2022/01/14 08:39:46;;;;;;;23.73;16.70;;;9.40;99.90;;;;;;5017820;28;20206;-88
2022/01/14 08:42:13;;;;;;;30.02;18.30;;;9.50;99.90;;;;;;5025369;28;20225;-88
2022/01/14 08:44:40;;;;;;;27.67;18.95;;;9.60;99.90;;;;;;5009944;28;20206;-89
2022/01/14 08:47:09;;;;;;;27.58;18.95;;;9.90;99.90;;;;;;5007510;28;20197;-89
2022/01/14 08:49:38;;;;;;;24.58;16.67;;;10.20;99.90;;;;;;5019204;28;20182;-89
2022/01/14 08:52:05;;;;;;;23.02;17.35;;;10.60;99.90;;;;;;5004062;28;20178;-89
2022/01/14 08:54:30;;;;;;;21.48;14.73;;;10.90;99.90;;;;;;4998823;28;20187;-88
2022/01/14 08:56:56;;;;;;;25.10;14.97;;;11.20;99.40;;;;;;5023889;28;20194;-88
2022/01/14 08:59:22;;;;;;;20.95;13.90;;;11.50;98.90;;;;;;5011753;28;20700;-88
2022/01/14 09:01:48;;;;;;;20.50;14.17;;;11.90;98.50;;;;;;5005880;28;20687;-88
2022/01/14 09:04:14;;;;;;;20.97;13.50;;;12.30;97.60;;;;;;5030166;28;20183;-89
2022/01/14 09:06:40;;;;;;;24.58;16.40;;;12.40;96.80;;;;;;5017181;28;20234;-87
2022/01/14 09:09:06;;;;;;;21.90;15.17;;;12.50;96.60;;;;;;5046668;28;20202;-87
2022/01/14 09:11:33;;;;;;;20.40;14.63;;;12.70;95.80;;;;;;5000657;28;20570;-88
2022/01/14 09:13:59;;;;;;;18.33;12.82;;;13.00;95.30;;;;;;4992484;28;20186;-89
2022/01/14 09:16:25;;;;;;;21.73;15.00;;;13.20;94.90;;;;;;5011342;28;20928;-88
2022/01/14 09:18:51;;;;;;;20.13;15.17;;;13.30;94.30;;;;;;5024506;28;20676;-89
2022/01/14 09:21:18;;;;;;;20.27;14.00;;;13.40;94.00;;;;;;5028715;28;20918;-88
2022/01/14 09:23:52;;;;;;;19.67;14.68;;;13.40;93.90;;;;;;5010805;28;20182;-88
2022/01/14 09:26:21;;;;;;;20.73;14.50;;;13.50;93.50;;;;;;5011778;28;20261;-89
2022/01/14 09:28:47;;;;;;;18.57;13.60;;;13.50;93.50;;;;;;5008519;28;20428;-88
2022/01/14 09:31:13;;;;;;;21.20;14.40;;;13.50;93.30;;;;;;5016773;28;20463;-88
2022/01/14 09:33:41;;;;;;;21.45;13.73;;;13.60;92.80;;;;;;5031640;28;20179;-88
2022/01/14 09:36:07;;;;;;;20.97;14.53;;;13.70;92.70;;;;;;5008361;28;20264;-88
2022/01/14 09:38:33;;;;;;;18.73;13.17;;;13.80;92.60;;;;;;5033426;28;20412;-87
2022/01/14 09:40:59;;;;;;;18.67;13.70;;;14.00;92.00;;;;;;5036759;28;20968;-88
2022/01/14 09:43:25;;;;;;;21.10;13.80;;;14.10;92.00;;;;;;5033688;28;20703;-88
2022/01/14 09:45:52;;;;;;;21.17;14.30;;;14.30;91.80;;;;;;5024470;28;20504;-88
2022/01/14 09:48:18;;;;;;;19.10;13.57;;;14.50;91.00;;;;;;5014316;28;20940;-87
2022/01/14 09:50:44;;;;;;;20.10;13.43;;;14.60;90.80;;;;;;5016922;28;20539;-88
2022/01/14 09:53:16;;;;;;;19.77;14.37;;;14.60;90.40;;;;;;5014317;28;20481;-87
2022/01/14 09:55:43;;;;;;;23.83;14.70;;;14.70;90.70;;;;;;5018730;28;20463;-88
2022/01/14 09:58:09;;;;;;;20.93;14.80;;;14.80;90.40;;;;;;5035950;28;20772;-88
2022/01/14 10:00:36;;;;;;;16.67;14.10;;;14.80;90.70;;;;;;5021099;28;20517;-88
2022/01/14 10:03:22;;;;;;;22.70;15.00;;;14.70;90.50;;;;;;5015819;28;20493;-88
2022/01/14 10:05:51;;;;;;;19.03;13.83;;;14.40;90.50;;;;;;5008876;28;20758;-88
2022/01/14 10:08:22;;;;;;;20.47;14.27;;;14.20;90.40;;;;;;5030627;28;20470;-88
2022/01/14 10:11:00;;;;;;;21.23;16.20;;;14.10;90.40;;;;;;5018199;28;20459;-88
2022/01/14 10:13:31;;;;;;;21.70;13.93;;;14.00;90.40;;;;;;5036270;28;20415;-88
2022/01/14 10:16:03;;;;;;;22.50;14.60;;;13.70;91.00;;;;;;5025686;28;20451;-87
2022/01/14 10:18:30;;;;;;;17.07;13.70;;;13.50;90.60;;;;;;5032802;28;20805;-87
2022/01/14 10:21:01;;;;;;;21.03;14.13;;;13.30;90.80;;;;;;5031898;28;20442;-87
2022/01/14 10:23:47;;;;;;;22.38;14.70;;;13.00;91.40;;;;;;5032058;28;20464;-88
2022/01/14 10:26:15;;;;;;;23.58;15.88;;;12.80;92.00;;;;;;5026717;28;20214;-88
2022/01/14 10:28:44;;;;;;;20.30;14.18;;;12.60;92.40;;;;;;5036247;28;20233;-88
2022/01/14 10:31:11;;;;;;;17.95;14.18;;;12.40;92.40;;;;;;5014923;28;20206;-88
2022/01/14 10:33:36;;;;;;;20.52;14.63;;;12.20;92.50;;;;;;5028825;28;20651;-88
2022/01/14 10:36:03;;;;;;;21.23;15.83;;;12.10;92.60;;;;;;5014851;28;20248;-88
2022/01/14 10:38:38;;;;;;;22.48;15.20;;;11.90;92.90;;;;;;5009954;28;20230;-88
2022/01/14 10:41:09;;;;;;;18.70;14.35;;;11.80;93.40;;;;;;5019661;28;20289;-88
2022/01/14 10:43:36;;;;;;;20.75;14.95;;;11.70;93.60;;;;;;5009570;28;20503;-87
2022/01/14 10:46:08;;;;;;;20.48;14.27;;;11.60;93.70;;;;;;5014646;28;20554;-88
2022/01/14 10:48:39;;;;;;;20.17;14.60;;;11.50;93.60;;;;;;5020379;28;20555;-87
2022/01/14 10:51:10;;;;;;;18.85;13.73;;;11.40;94.40;;;;;;5036975;28;20225;-88
2022/01/14 10:53:48;;;;;;;20.15;14.98;;;11.30;94.20;;;;;;5012803;28;20186;-88
2022/01/14 10:56:19;;;;;;;22.83;14.05;;;11.10;94.60;;;;;;5013233;28;20572;-89
2022/01/14 10:58:47;;;;;;;24.10;13.95;;;11.00;94.80;;;;;;5020467;28;20194;-88
2022/01/14 11:01:21;;;;;;;22.45;15.85;;;10.90;95.30;;;;;;5010838;28;20226;-88
2022/01/14 11:04:00;;;;;;;27.63;15.32;;;10.80;95.10;;;;;;5024088;28;20222;-88
2022/01/14 11:06:34;;;;;;;22.60;14.48;;;10.70;95.60;;;;;;5012431;28;20234;-88
2022/01/14 11:09:00;;;;;;;17.95;13.77;;;10.60;95.80;;;;;;5009153;28;20186;-88
2022/01/14 11:11:29;;;;;;;19.80;13.55;;;10.60;96.00;;;;;;5034222;28;20217;-88
2022/01/14 11:13:55;;;;;;;23.83;14.57;;;10.40;96.40;;;;;;5023762;28;20190;-89
2022/01/14 11:16:21;;;;;;;21.33;15.20;;;10.30;96.30;;;;;;5032419;28;20214;-88
2022/01/14 11:18:48;;;;;;;23.30;14.57;;;10.20;96.90;;;;;;5029092;28;20482;-89
2022/01/14 11:24:00;;;;;;;20.23;14.60;;;10.00;97.30;;;;;;5015783;28;20600;-89
2022/01/14 11:26:32;;;;;;;21.92;14.07;;;10.00;97.70;;;;;;5015481;28;20234;-89
2022/01/14 11:29:05;;;;;;;19.40;13.00;;;9.90;98.10;;;;;;5039000;28;20169;-88
2022/01/14 11:31:35;;;;;;;22.90;15.93;;;9.80;98.30;;;;;;5009794;28;20275;-89
2022/01/14 11:34:03;;;;;;;17.63;13.27;;;9.80;99.00;;;;;;5002043;28;20194;-89
2022/01/14 11:36:47;;;;;;;16.88;12.73;;;9.80;99.40;;;;;;5012554;28;20251;-89
2022/01/14 11:39:20;;;;;;;14.77;10.55;;;9.80;99.90;;;;;;5021888;28;20187;-89
2022/01/14 11:41:53;;;;;;;15.85;11.68;;;9.90;99.90;;;;;;5016842;28;20210;-89
2022/01/14 11:45:05;;;;;;;17.75;12.10;;;9.90;99.90;;;;;;5007610;28;20170;-89
2022/01/14 11:47:37;;;;;;;17.10;11.57;;;10.00;99.90;;;;;;5022448;28;20569;-89
2022/01/14 11:50:05;;;;;;;16.15;11.73;;;10.10;99.90;;;;;;5017680;28;20205;-89
2022/01/14 11:52:36;;;;;;;17.45;11.07;;;10.10;99.90;;;;;;5019632;28;20191;-89
2022/01/14 11:55:04;;;;;;;13.70;9.90;;;10.20;99.90;;;;;;5030320;28;20214;-89
2022/01/14 11:57:45;;;;;;;16.63;10.43;;;10.20;99.90;;;;;;5015162;28;20182;-90
2022/01/14 12:00:41;;;;;;;16.95;11.10;;;10.30;99.90;;;;;;5027573;28;20198;-89
2022/01/14 12:03:07;;;;;;;17.17;11.88;;;10.40;99.90;;;;;;5012901;28;20218;-89
2022/01/14 12:05:35;;;;;;;14.77;11.00;;;10.40;99.90;;;;;;5033200;28;20206;-90
2022/01/14 12:08:04;;;;;;;16.23;10.77;;;10.50;99.90;;;;;;5029321;28;20676;-90
2022/01/14 12:10:30;;;;;;;18.15;11.85;;;10.50;99.90;;;;;;5011440;28;20214;-90
2022/01/14 12:16:07;;;;;;;15.18;10.25;;;10.60;99.90;;;;;;5028198;28;20217;-89
2022/01/14 12:18:52;;;;;;;17.08;12.18;;;10.60;99.90;;;;;;5016666;28;20179;-91
2022/01/14 12:21:38;;;;;;;14.63;10.00;;;10.70;99.90;;;;;;5027910;28;20793;-90
2022/01/14 12:24:31;;;;;;;18.77;12.57;;;10.70;99.90;;;;;;5029860;28;20190;-89
2022/01/14 12:27:07;;;;;;;17.48;11.10;;;10.80;99.90;;;;;;5021912;28;20194;-90
2022/01/14 12:29:37;;;;;;;13.00;9.15;;;10.80;99.90;;;;;;5037821;28;20177;-89
2022/01/14 12:32:21;;;;;;;14.60;10.75;;;10.80;99.90;;;;;;5011905;28;20868;-90
2022/01/14 12:34:56;;;;;;;16.40;10.55;;;10.90;99.90;;;;;;5028348;28;20205;-89
2022/01/14 12:37:25;;;;;;;14.55;11.18;;;10.90;99.90;;;;;;5029308;28;20182;-89
2022/01/14 12:39:53;;;;;;;17.02;9.88;;;10.90;99.90;;;;;;5014842;28;20566;-89
2022/01/14 12:42:19;;;;;;;14.90;11.23;;;11.00;99.90;;;;;;5018652;28;20221;-89
2022/01/14 12:44:47;;;;;;;14.77;9.55;;;11.00;99.90;;;;;;5021436;28;20548;-89
2022/01/14 12:47:20;;;;;;;12.25;9.10;;;11.00;99.90;;;;;;5008085;28;20595;-89
2022/01/14 12:49:47;;;;;;;11.43;8.10;;;11.00;99.90;;;;;;5025717;28;20544;-90
2022/01/14 12:52:16;;;;;;;12.68;8.50;;;11.00;99.90;;;;;;5004989;28;20189;-90
2022/01/14 12:54:46;;;;;;;11.93;9.00;;;11.10;99.90;;;;;;5010142;28;20214;-89
2022/01/14 12:57:19;;;;;;;15.00;10.25;;;11.10;99.90;;;;;;5019504;28;20324;-89
2022/01/14 12:59:47;;;;;;;15.10;9.80;;;11.10;99.90;;;;;;5036981;28;20293;-90
2022/01/14 13:02:17;;;;;;;14.23;9.05;;;11.10;99.90;;;;;;5017577;28;20238;-89
2022/01/14 13:04:43;;;;;;;12.10;8.48;;;11.20;99.90;;;;;;5028000;28;20202;-89
2022/01/14 13:07:11;;;;;;;12.43;8.85;;;11.20;99.90;;;;;;5011692;28;20316;-89
2022/01/14 13:09:40;;;;;;;10.23;7.60;;;11.20;99.90;;;;;;5017360;28;20269;-89
2022/01/14 13:12:10;;;;;;;12.73;8.65;;;11.30;99.90;;;;;;5014652;28;20553;-89
2022/01/14 13:14:46;;;;;;;11.88;8.20;;;11.30;99.90;;;;;;5032451;28;20569;-89